sensor_id;sensor_type;location;lat;lon;timestamp;P1;durP1;ratioP1;P2;durP2;ratioP2
1082;SDS011;530;51.448;7.238;2023-02-28T00:01:21;6.20;;;4.50;;
1082;SDS011;530;51.448;7.238;2023-02-28T00:03:47;5.30;;;4.60;;
1082;SDS011;530;51.448;7.238;2023-02-28T00:06:13;5.47;;;4.10;;
1082;SDS011;530;51.448;7.238;2023-02-28T00:08:39;5.80;;;4.80;;
1082;SDS011;530;51.448;7.238;2023-02-28T00:11:05;4.97;;;4.40;;
1082;SDS011;530;51.448;7.238;2023-02-28T00:13:37;6.33;;;4.50;;
1082;SDS011;530;51.448;7.238;2023-02-28T00:16:05;5.40;;;4.03;;
1082;SDS011;530;51.448;7.238;2023-02-28T00:18:32;7.03;;;4.30;;
1082;SDS011;530;51.448;7.238;2023-02-28T00:20:58;7.03;;;4.20;;
1082;SDS011;530;51.448;7.238;2023-02-28T00:23:24;4.40;;;4.00;;
1082;SDS011;530;51.448;7.238;2023-02-28T00:25:51;6.07;;;4.33;;
1082;SDS011;530;51.448;7.238;2023-02-28T00:28:17;4.73;;;4.13;;
1082;SDS011;530;51.448;7.238;2023-02-28T00:30:43;6.03;;;4.17;;
1082;SDS011;530;51.448;7.238;2023-02-28T00:33:10;5.23;;;4.30;;
1082;SDS011;530;51.448;7.238;2023-02-28T00:35:35;3.90;;;3.50;;
1082;SDS011;530;51.448;7.238;2023-02-28T00:38:01;4.23;;;3.20;;
1082;SDS011;530;51.448;7.238;2023-02-28T00:40:27;5.40;;;3.70;;
1082;SDS011;530;51.448;7.238;2023-02-28T00:42:53;4.73;;;3.90;;
1082;SDS011;530;51.448;7.238;2023-02-28T00:45:19;4.13;;;3.73;;
1082;SDS011;530;51.448;7.238;2023-02-28T00:47:45;4.00;;;3.50;;
1082;SDS011;530;51.448;7.238;2023-02-28T00:50:11;4.73;;;4.23;;
1082;SDS011;530;51.448;7.238;2023-02-28T00:52:37;5.50;;;4.17;;
1082;SDS011;530;51.448;7.238;2023-02-28T00:55:03;6.03;;;4.00;;
1082;SDS011;530;51.448;7.238;2023-02-28T00:57:29;4.43;;;3.87;;
1082;SDS011;530;51.448;7.238;2023-02-28T00:59:55;5.47;;;4.43;;
1082;SDS011;530;51.448;7.238;2023-02-28T01:02:21;5.03;;;4.30;;
1082;SDS011;530;51.448;7.238;2023-02-28T01:04:47;5.87;;;4.27;;
1082;SDS011;530;51.448;7.238;2023-02-28T01:07:13;9.37;;;4.43;;
1082;SDS011;530;51.448;7.238;2023-02-28T01:09:39;4.90;;;3.93;;
1082;SDS011;530;51.448;7.238;2023-02-28T01:12:06;5.17;;;3.57;;
1082;SDS011;530;51.448;7.238;2023-02-28T01:14:32;7.00;;;4.40;;
1082;SDS011;530;51.448;7.238;2023-02-28T01:16:58;4.37;;;3.80;;
1082;SDS011;530;51.448;7.238;2023-02-28T01:19:23;7.20;;;4.27;;
1082;SDS011;530;51.448;7.238;2023-02-28T01:21:49;5.43;;;4.30;;
1082;SDS011;530;51.448;7.238;2023-02-28T01:24:15;5.57;;;4.17;;
1082;SDS011;530;51.448;7.238;2023-02-28T01:26:40;4.13;;;3.50;;
1082;SDS011;530;51.448;7.238;2023-02-28T01:29:06;5.77;;;4.40;;
1082;SDS011;530;51.448;7.238;2023-02-28T01:31:32;4.00;;;3.60;;
1082;SDS011;530;51.448;7.238;2023-02-28T01:33:58;5.07;;;3.83;;
1082;SDS011;530;51.448;7.238;2023-02-28T01:36:24;4.70;;;4.20;;
1082;SDS011;530;51.448;7.238;2023-02-28T01:38:50;7.83;;;4.60;;
1082;SDS011;530;51.448;7.238;2023-02-28T01:41:18;4.77;;;3.90;;
1082;SDS011;530;51.448;7.238;2023-02-28T01:46:12;4.30;;;3.90;;
1082;SDS011;530;51.448;7.238;2023-02-28T01:48:39;5.47;;;3.90;;
1082;SDS011;530;51.448;7.238;2023-02-28T01:51:13;7.50;;;4.17;;
1082;SDS011;530;51.448;7.238;2023-02-28T01:53:44;4.00;;;3.63;;
1082;SDS011;530;51.448;7.238;2023-02-28T01:56:19;5.37;;;4.07;;
1082;SDS011;530;51.448;7.238;2023-02-28T01:58:48;4.87;;;3.60;;
1082;SDS011;530;51.448;7.238;2023-02-28T02:01:16;4.10;;;3.70;;
1082;SDS011;530;51.448;7.238;2023-02-28T02:04:00;7.20;;;3.50;;
1082;SDS011;530;51.448;7.238;2023-02-28T02:06:29;3.60;;;2.83;;
1082;SDS011;530;51.448;7.238;2023-02-28T02:09:00;4.23;;;3.53;;
1082;SDS011;530;51.448;7.238;2023-02-28T02:11:27;5.90;;;3.37;;
1082;SDS011;530;51.448;7.238;2023-02-28T02:14:04;4.47;;;3.70;;
1082;SDS011;530;51.448;7.238;2023-02-28T02:17:12;4.93;;;3.73;;
1082;SDS011;530;51.448;7.238;2023-02-28T02:25:22;3.77;;;3.37;;
1082;SDS011;530;51.448;7.238;2023-02-28T02:30:40;5.37;;;3.37;;
1082;SDS011;530;51.448;7.238;2023-02-28T02:33:23;3.57;;;2.90;;
1082;SDS011;530;51.448;7.238;2023-02-28T02:36:24;4.30;;;3.90;;
1082;SDS011;530;51.448;7.238;2023-02-28T02:38:58;4.57;;;3.30;;
1082;SDS011;530;51.448;7.238;2023-02-28T02:41:47;6.03;;;3.67;;
1082;SDS011;530;51.448;7.238;2023-02-28T02:46:52;4.83;;;3.63;;
1082;SDS011;530;51.448;7.238;2023-02-28T02:49:28;6.00;;;4.20;;
1082;SDS011;530;51.448;7.238;2023-02-28T02:51:56;5.53;;;3.43;;
1082;SDS011;530;51.448;7.238;2023-02-28T02:56:53;7.73;;;3.70;;
1082;SDS011;530;51.448;7.238;2023-02-28T02:59:25;5.47;;;3.90;;
1082;SDS011;530;51.448;7.238;2023-02-28T03:01:55;5.33;;;3.93;;
1082;SDS011;530;51.448;7.238;2023-02-28T03:04:24;5.63;;;3.57;;
1082;SDS011;530;51.448;7.238;2023-02-28T03:06:55;4.27;;;3.30;;
1082;SDS011;530;51.448;7.238;2023-02-28T03:09:21;3.50;;;3.07;;
1082;SDS011;530;51.448;7.238;2023-02-28T03:11:47;4.17;;;3.47;;
1082;SDS011;530;51.448;7.238;2023-02-28T03:14:39;5.97;;;3.63;;
1082;SDS011;530;51.448;7.238;2023-02-28T03:23:16;7.00;;;3.57;;
1082;SDS011;530;51.448;7.238;2023-02-28T03:26:02;3.90;;;3.60;;
1082;SDS011;530;51.448;7.238;2023-02-28T03:33:50;4.40;;;3.40;;
1082;SDS011;530;51.448;7.238;2023-02-28T03:36:20;4.43;;;3.70;;
1082;SDS011;530;51.448;7.238;2023-02-28T03:43:50;6.27;;;3.93;;
1082;SDS011;530;51.448;7.238;2023-02-28T03:46:31;4.03;;;3.70;;
1082;SDS011;530;51.448;7.238;2023-02-28T03:51:28;4.10;;;3.20;;
1082;SDS011;530;51.448;7.238;2023-02-28T03:53:59;4.00;;;3.13;;
1082;SDS011;530;51.448;7.238;2023-02-28T03:56:33;4.10;;;3.20;;
1082;SDS011;530;51.448;7.238;2023-02-28T03:59:07;5.93;;;3.77;;
1082;SDS011;530;51.448;7.238;2023-02-28T04:01:47;4.17;;;3.17;;
1082;SDS011;530;51.448;7.238;2023-02-28T04:04:14;3.97;;;3.57;;
1082;SDS011;530;51.448;7.238;2023-02-28T04:06:41;5.47;;;3.50;;
1082;SDS011;530;51.448;7.238;2023-02-28T04:09:08;5.87;;;3.47;;
1082;SDS011;530;51.448;7.238;2023-02-28T04:11:38;4.77;;;3.50;;
1082;SDS011;530;51.448;7.238;2023-02-28T04:14:06;5.20;;;3.70;;
1082;SDS011;530;51.448;7.238;2023-02-28T04:16:33;5.57;;;3.67;;
1082;SDS011;530;51.448;7.238;2023-02-28T04:19:01;4.80;;;4.33;;
1082;SDS011;530;51.448;7.238;2023-02-28T04:21:30;4.10;;;3.20;;
1082;SDS011;530;51.448;7.238;2023-02-28T04:24:00;5.57;;;3.57;;
1082;SDS011;530;51.448;7.238;2023-02-28T04:26:33;4.23;;;3.43;;
1082;SDS011;530;51.448;7.238;2023-02-28T04:29:01;4.73;;;3.50;;
1082;SDS011;530;51.448;7.238;2023-02-28T04:31:28;4.40;;;3.20;;
1082;SDS011;530;51.448;7.238;2023-02-28T04:33:54;6.70;;;3.40;;
1082;SDS011;530;51.448;7.238;2023-02-28T04:36:20;4.10;;;3.70;;
1082;SDS011;530;51.448;7.238;2023-02-28T04:38:47;4.50;;;3.20;;
1082;SDS011;530;51.448;7.238;2023-02-28T04:41:13;4.47;;;4.07;;
1082;SDS011;530;51.448;7.238;2023-02-28T04:43:39;5.40;;;3.93;;
1082;SDS011;530;51.448;7.238;2023-02-28T04:46:05;5.13;;;3.50;;
1082;SDS011;530;51.448;7.238;2023-02-28T04:48:32;8.30;;;3.40;;
1082;SDS011;530;51.448;7.238;2023-02-28T04:51:03;4.17;;;3.30;;
1082;SDS011;530;51.448;7.238;2023-02-28T04:53:30;4.43;;;3.60;;
1082;SDS011;530;51.448;7.238;2023-02-28T04:55:56;5.30;;;3.73;;
1082;SDS011;530;51.448;7.238;2023-02-28T04:58:23;4.17;;;3.03;;
1082;SDS011;530;51.448;7.238;2023-02-28T05:00:50;5.17;;;3.57;;
1082;SDS011;530;51.448;7.238;2023-02-28T05:03:16;5.53;;;3.33;;
1082;SDS011;530;51.448;7.238;2023-02-28T05:05:42;5.93;;;3.30;;
1082;SDS011;530;51.448;7.238;2023-02-28T05:08:07;4.40;;;3.87;;
1082;SDS011;530;51.448;7.238;2023-02-28T05:10:34;4.53;;;3.33;;
1082;SDS011;530;51.448;7.238;2023-02-28T05:13:01;7.33;;;3.57;;
1082;SDS011;530;51.448;7.238;2023-02-28T05:15:26;4.70;;;3.63;;
1082;SDS011;530;51.448;7.238;2023-02-28T05:17:52;3.83;;;3.47;;
1082;SDS011;530;51.448;7.238;2023-02-28T05:20:18;4.30;;;3.70;;
1082;SDS011;530;51.448;7.238;2023-02-28T05:22:44;4.87;;;3.43;;
1082;SDS011;530;51.448;7.238;2023-02-28T05:25:10;4.43;;;3.70;;
1082;SDS011;530;51.448;7.238;2023-02-28T05:27:40;4.20;;;3.80;;
1082;SDS011;530;51.448;7.238;2023-02-28T05:30:06;6.10;;;4.67;;
1082;SDS011;530;51.448;7.238;2023-02-28T05:32:35;4.70;;;4.03;;
1082;SDS011;530;51.448;7.238;2023-02-28T05:35:07;4.80;;;3.83;;
1082;SDS011;530;51.448;7.238;2023-02-28T05:37:34;5.80;;;4.20;;
1082;SDS011;530;51.448;7.238;2023-02-28T05:39:59;5.00;;;3.60;;
1082;SDS011;530;51.448;7.238;2023-02-28T05:42:26;4.43;;;4.03;;
1082;SDS011;530;51.448;7.238;2023-02-28T05:44:51;4.97;;;3.63;;
1082;SDS011;530;51.448;7.238;2023-02-28T05:47:17;5.23;;;4.20;;
1082;SDS011;530;51.448;7.238;2023-02-28T05:49:43;5.00;;;3.97;;
1082;SDS011;530;51.448;7.238;2023-02-28T05:52:08;4.97;;;4.03;;
1082;SDS011;530;51.448;7.238;2023-02-28T05:54:34;6.73;;;4.10;;
1082;SDS011;530;51.448;7.238;2023-02-28T05:57:00;4.37;;;3.63;;
1082;SDS011;530;51.448;7.238;2023-02-28T05:59:25;4.50;;;3.50;;
1082;SDS011;530;51.448;7.238;2023-02-28T06:01:51;5.00;;;4.00;;
1082;SDS011;530;51.448;7.238;2023-02-28T06:04:19;6.13;;;3.60;;
1082;SDS011;530;51.448;7.238;2023-02-28T06:06:46;7.07;;;4.27;;
1082;SDS011;530;51.448;7.238;2023-02-28T06:09:12;6.37;;;4.07;;
1082;SDS011;530;51.448;7.238;2023-02-28T06:11:38;5.33;;;3.87;;
1082;SDS011;530;51.448;7.238;2023-02-28T06:14:04;4.20;;;3.57;;
1082;SDS011;530;51.448;7.238;2023-02-28T06:16:31;5.50;;;4.07;;
1082;SDS011;530;51.448;7.238;2023-02-28T06:18:59;7.10;;;4.27;;
1082;SDS011;530;51.448;7.238;2023-02-28T06:21:26;5.67;;;4.20;;
1082;SDS011;530;51.448;7.238;2023-02-28T06:23:53;6.07;;;4.87;;
1082;SDS011;530;51.448;7.238;2023-02-28T06:26:20;7.20;;;4.37;;
1082;SDS011;530;51.448;7.238;2023-02-28T06:28:46;5.40;;;4.47;;
1082;SDS011;530;51.448;7.238;2023-02-28T06:31:13;4.77;;;3.97;;
1082;SDS011;530;51.448;7.238;2023-02-28T06:33:41;7.40;;;3.93;;
1082;SDS011;530;51.448;7.238;2023-02-28T06:36:09;5.20;;;4.57;;
1082;SDS011;530;51.448;7.238;2023-02-28T06:38:36;6.17;;;3.83;;
1082;SDS011;530;51.448;7.238;2023-02-28T06:41:02;5.63;;;4.47;;
1082;SDS011;530;51.448;7.238;2023-02-28T06:43:29;6.70;;;4.27;;
1082;SDS011;530;51.448;7.238;2023-02-28T06:45:58;6.30;;;3.90;;
1082;SDS011;530;51.448;7.238;2023-02-28T06:48:27;6.40;;;4.67;;
1082;SDS011;530;51.448;7.238;2023-02-28T06:51:03;5.67;;;3.60;;
1082;SDS011;530;51.448;7.238;2023-02-28T06:53:31;6.03;;;3.80;;
1082;SDS011;530;51.448;7.238;2023-02-28T06:55:57;4.43;;;4.03;;
1082;SDS011;530;51.448;7.238;2023-02-28T06:58:23;7.93;;;3.90;;
1082;SDS011;530;51.448;7.238;2023-02-28T07:00:50;5.80;;;3.73;;
1082;SDS011;530;51.448;7.238;2023-02-28T07:03:16;4.57;;;3.90;;
1082;SDS011;530;51.448;7.238;2023-02-28T07:05:43;8.13;;;3.80;;
1082;SDS011;530;51.448;7.238;2023-02-28T07:08:10;4.40;;;4.00;;
1082;SDS011;530;51.448;7.238;2023-02-28T07:10:39;5.23;;;3.80;;
1082;SDS011;530;51.448;7.238;2023-02-28T07:13:05;5.13;;;3.80;;
1082;SDS011;530;51.448;7.238;2023-02-28T07:15:32;6.70;;;4.63;;
1082;SDS011;530;51.448;7.238;2023-02-28T07:17:58;4.47;;;4.03;;
1082;SDS011;530;51.448;7.238;2023-02-28T07:20:24;5.47;;;4.00;;
1082;SDS011;530;51.448;7.238;2023-02-28T07:22:50;6.30;;;4.10;;
1082;SDS011;530;51.448;7.238;2023-02-28T07:25:24;3.90;;;3.30;;
1082;SDS011;530;51.448;7.238;2023-02-28T07:27:52;6.20;;;4.43;;
1082;SDS011;530;51.448;7.238;2023-02-28T07:30:18;5.00;;;4.00;;
1082;SDS011;530;51.448;7.238;2023-02-28T07:32:44;6.47;;;4.53;;
1082;SDS011;530;51.448;7.238;2023-02-28T07:35:10;6.77;;;4.27;;
1082;SDS011;530;51.448;7.238;2023-02-28T07:37:36;7.20;;;4.20;;
1082;SDS011;530;51.448;7.238;2023-02-28T07:40:06;5.23;;;4.27;;
1082;SDS011;530;51.448;7.238;2023-02-28T07:42:36;4.80;;;4.13;;
1082;SDS011;530;51.448;7.238;2023-02-28T07:45:03;4.07;;;3.70;;
1082;SDS011;530;51.448;7.238;2023-02-28T07:47:29;5.30;;;3.87;;
1082;SDS011;530;51.448;7.238;2023-02-28T07:49:55;5.20;;;4.10;;
1082;SDS011;530;51.448;7.238;2023-02-28T07:52:21;5.83;;;4.53;;
1082;SDS011;530;51.448;7.238;2023-02-28T07:54:48;5.03;;;4.43;;
1082;SDS011;530;51.448;7.238;2023-02-28T07:57:15;5.70;;;4.00;;
1082;SDS011;530;51.448;7.238;2023-02-28T07:59:41;6.33;;;4.47;;
1082;SDS011;530;51.448;7.238;2023-02-28T08:02:06;5.87;;;4.40;;
1082;SDS011;530;51.448;7.238;2023-02-28T08:04:35;8.53;;;4.03;;
1082;SDS011;530;51.448;7.238;2023-02-28T08:07:01;4.57;;;4.17;;
1082;SDS011;530;51.448;7.238;2023-02-28T08:09:26;5.13;;;3.97;;
1082;SDS011;530;51.448;7.238;2023-02-28T08:11:52;5.87;;;5.07;;
1082;SDS011;530;51.448;7.238;2023-02-28T08:14:18;7.10;;;4.60;;
1082;SDS011;530;51.448;7.238;2023-02-28T08:16:43;4.60;;;4.00;;
1082;SDS011;530;51.448;7.238;2023-02-28T08:19:09;5.63;;;4.90;;
1082;SDS011;530;51.448;7.238;2023-02-28T08:21:35;4.50;;;4.10;;
1082;SDS011;530;51.448;7.238;2023-02-28T08:24:00;6.10;;;4.00;;
1082;SDS011;530;51.448;7.238;2023-02-28T08:26:26;6.37;;;4.30;;
1082;SDS011;530;51.448;7.238;2023-02-28T08:28:52;5.40;;;4.40;;
1082;SDS011;530;51.448;7.238;2023-02-28T08:31:18;5.17;;;4.60;;
1082;SDS011;530;51.448;7.238;2023-02-28T08:33:44;4.87;;;4.37;;
1082;SDS011;530;51.448;7.238;2023-02-28T08:36:10;6.87;;;4.77;;
1082;SDS011;530;51.448;7.238;2023-02-28T08:38:36;5.37;;;4.37;;
1082;SDS011;530;51.448;7.238;2023-02-28T08:41:05;6.27;;;4.60;;
1082;SDS011;530;51.448;7.238;2023-02-28T08:43:33;7.50;;;4.77;;
1082;SDS011;530;51.448;7.238;2023-02-28T08:45:59;5.17;;;4.20;;
1082;SDS011;530;51.448;7.238;2023-02-28T08:48:29;7.27;;;4.77;;
1082;SDS011;530;51.448;7.238;2023-02-28T08:50:59;6.50;;;4.33;;
1082;SDS011;530;51.448;7.238;2023-02-28T08:53:27;5.87;;;4.43;;
1082;SDS011;530;51.448;7.238;2023-02-28T08:55:59;5.17;;;4.50;;
1082;SDS011;530;51.448;7.238;2023-02-28T08:58:30;5.13;;;4.63;;
1082;SDS011;530;51.448;7.238;2023-02-28T09:00:56;7.10;;;4.60;;
1082;SDS011;530;51.448;7.238;2023-02-28T09:03:22;4.70;;;3.80;;
1082;SDS011;530;51.448;7.238;2023-02-28T09:05:55;5.30;;;4.17;;
1082;SDS011;530;51.448;7.238;2023-02-28T09:08:23;5.57;;;4.33;;
1082;SDS011;530;51.448;7.238;2023-02-28T09:10:49;5.60;;;3.80;;
1082;SDS011;530;51.448;7.238;2023-02-28T09:13:15;6.37;;;4.10;;
1082;SDS011;530;51.448;7.238;2023-02-28T09:15:42;4.37;;;3.97;;
1082;SDS011;530;51.448;7.238;2023-02-28T09:18:07;5.13;;;4.23;;
1082;SDS011;530;51.448;7.238;2023-02-28T09:20:33;4.23;;;3.83;;
1082;SDS011;530;51.448;7.238;2023-02-28T09:22:59;8.07;;;4.53;;
1082;SDS011;530;51.448;7.238;2023-02-28T09:25:24;3.60;;;3.30;;
1082;SDS011;530;51.448;7.238;2023-02-28T09:27:50;6.47;;;3.57;;
1082;SDS011;530;51.448;7.238;2023-02-28T09:30:16;6.20;;;4.00;;
1082;SDS011;530;51.448;7.238;2023-02-28T09:32:42;7.67;;;3.80;;
1082;SDS011;530;51.448;7.238;2023-02-28T09:35:07;3.10;;;2.80;;
1082;SDS011;530;51.448;7.238;2023-02-28T09:37:38;4.50;;;3.63;;
1082;SDS011;530;51.448;7.238;2023-02-28T09:40:04;3.80;;;3.40;;
1082;SDS011;530;51.448;7.238;2023-02-28T09:42:31;6.30;;;3.60;;
1082;SDS011;530;51.448;7.238;2023-02-28T09:44:59;4.60;;;3.60;;
1082;SDS011;530;51.448;7.238;2023-02-28T09:50:06;3.33;;;2.97;;
1082;SDS011;530;51.448;7.238;2023-02-28T09:52:57;3.53;;;3.17;;
1082;SDS011;530;51.448;7.238;2023-02-28T09:55:37;4.70;;;2.73;;
1082;SDS011;530;51.448;7.238;2023-02-28T09:58:13;3.37;;;2.83;;
1082;SDS011;530;51.448;7.238;2023-02-28T10:01:07;4.33;;;3.10;;
1082;SDS011;530;51.448;7.238;2023-02-28T10:03:47;3.07;;;2.77;;
1082;SDS011;530;51.448;7.238;2023-02-28T10:06:50;2.90;;;2.70;;
1082;SDS011;530;51.448;7.238;2023-02-28T10:09:19;4.10;;;3.60;;
1082;SDS011;530;51.448;7.238;2023-02-28T10:11:52;3.33;;;3.03;;
1082;SDS011;530;51.448;7.238;2023-02-28T10:14:23;2.43;;;2.23;;
1082;SDS011;530;51.448;7.238;2023-02-28T10:17:02;2.50;;;2.30;;
1082;SDS011;530;51.448;7.238;2023-02-28T10:22:31;2.83;;;2.20;;
1082;SDS011;530;51.448;7.238;2023-02-28T10:25:23;3.60;;;2.43;;
1082;SDS011;530;51.448;7.238;2023-02-28T10:27:52;2.27;;;2.07;;
1082;SDS011;530;51.448;7.238;2023-02-28T10:30:24;2.50;;;2.30;;
1082;SDS011;530;51.448;7.238;2023-02-28T10:32:51;3.60;;;2.40;;
1082;SDS011;530;51.448;7.238;2023-02-28T10:35:24;2.93;;;2.20;;
1082;SDS011;530;51.448;7.238;2023-02-28T10:37:53;2.60;;;2.20;;
1082;SDS011;530;51.448;7.238;2023-02-28T10:45:30;3.00;;;1.93;;
1082;SDS011;530;51.448;7.238;2023-02-28T10:48:06;3.33;;;2.50;;
1082;SDS011;530;51.448;7.238;2023-02-28T10:51:19;3.10;;;1.90;;
1082;SDS011;530;51.448;7.238;2023-02-28T10:53:48;2.07;;;1.90;;
1082;SDS011;530;51.448;7.238;2023-02-28T10:58:51;3.07;;;2.50;;
1082;SDS011;530;51.448;7.238;2023-02-28T11:01:45;3.07;;;2.13;;
1082;SDS011;530;51.448;7.238;2023-02-28T11:04:18;2.33;;;2.13;;
1082;SDS011;530;51.448;7.238;2023-02-28T11:09:45;2.60;;;2.40;;
1082;SDS011;530;51.448;7.238;2023-02-28T11:12:34;3.77;;;3.00;;
1082;SDS011;530;51.448;7.238;2023-02-28T11:15:07;2.83;;;2.43;;
1082;SDS011;530;51.448;7.238;2023-02-28T11:17:57;2.20;;;2.00;;
1082;SDS011;530;51.448;7.238;2023-02-28T11:20:43;3.37;;;3.00;;
1082;SDS011;530;51.448;7.238;2023-02-28T11:23:15;3.13;;;2.47;;
1082;SDS011;530;51.448;7.238;2023-02-28T11:25:45;2.57;;;2.37;;
1082;SDS011;530;51.448;7.238;2023-02-28T11:36:12;4.53;;;2.40;;
1082;SDS011;530;51.448;7.238;2023-02-28T11:38:45;3.40;;;2.37;;
1082;SDS011;530;51.448;7.238;2023-02-28T11:41:24;3.10;;;2.60;;
1082;SDS011;530;51.448;7.238;2023-02-28T11:47:22;4.20;;;2.47;;
1082;SDS011;530;51.448;7.238;2023-02-28T11:57:59;3.10;;;2.60;;
1082;SDS011;530;51.448;7.238;2023-02-28T12:26:37;2.83;;;2.53;;
1082;SDS011;530;51.448;7.238;2023-02-28T12:29:28;3.30;;;2.70;;
1082;SDS011;530;51.448;7.238;2023-02-28T12:32:05;3.20;;;2.90;;
1082;SDS011;530;51.448;7.238;2023-02-28T12:34:39;3.30;;;3.00;;
1082;SDS011;530;51.448;7.238;2023-02-28T12:37:17;3.07;;;2.80;;
1082;SDS011;530;51.448;7.238;2023-02-28T12:40:19;3.17;;;2.87;;
1082;SDS011;530;51.448;7.238;2023-02-28T12:42:58;5.10;;;3.10;;
1082;SDS011;530;51.448;7.238;2023-02-28T12:45:48;3.27;;;2.40;;
1082;SDS011;530;51.448;7.238;2023-02-28T12:48:20;3.70;;;3.40;;
1082;SDS011;530;51.448;7.238;2023-02-28T12:50:52;6.03;;;3.00;;
1082;SDS011;530;51.448;7.238;2023-02-28T12:53:23;3.80;;;3.37;;
1082;SDS011;530;51.448;7.238;2023-02-28T12:58:50;4.37;;;3.00;;
1082;SDS011;530;51.448;7.238;2023-02-28T13:07:08;3.67;;;3.13;;
1082;SDS011;530;51.448;7.238;2023-02-28T13:09:39;3.70;;;3.10;;
1082;SDS011;530;51.448;7.238;2023-02-28T13:12:12;3.50;;;3.20;;
1082;SDS011;530;51.448;7.238;2023-02-28T13:14:39;3.57;;;3.27;;
1082;SDS011;530;51.448;7.238;2023-02-28T13:19:35;3.70;;;3.40;;
1082;SDS011;530;51.448;7.238;2023-02-28T13:22:04;3.30;;;3.00;;
1082;SDS011;530;51.448;7.238;2023-02-28T13:24:48;3.60;;;3.30;;
1082;SDS011;530;51.448;7.238;2023-02-28T13:27:35;3.40;;;3.10;;
1082;SDS011;530;51.448;7.238;2023-02-28T13:36:00;3.80;;;3.50;;
1082;SDS011;530;51.448;7.238;2023-02-28T13:38:35;3.63;;;3.33;;
1082;SDS011;530;51.448;7.238;2023-02-28T13:46:27;4.37;;;3.90;;
1082;SDS011;530;51.448;7.238;2023-02-28T13:48:52;4.00;;;3.70;;
1082;SDS011;530;51.448;7.238;2023-02-28T13:51:37;4.13;;;3.20;;
1082;SDS011;530;51.448;7.238;2023-02-28T14:05:30;3.57;;;3.30;;
1082;SDS011;530;51.448;7.238;2023-02-28T14:07:59;4.20;;;3.80;;
1082;SDS011;530;51.448;7.238;2023-02-28T14:10:46;4.30;;;3.90;;
1082;SDS011;530;51.448;7.238;2023-02-28T14:15:54;4.60;;;3.40;;
1082;SDS011;530;51.448;7.238;2023-02-28T14:18:27;4.50;;;4.10;;
1082;SDS011;530;51.448;7.238;2023-02-28T14:21:14;4.10;;;3.80;;
1082;SDS011;530;51.448;7.238;2023-02-28T14:29:35;6.27;;;4.13;;
1082;SDS011;530;51.448;7.238;2023-02-28T14:37:32;4.20;;;3.90;;
1082;SDS011;530;51.448;7.238;2023-02-28T14:40:02;5.10;;;4.70;;
1082;SDS011;530;51.448;7.238;2023-02-28T14:42:33;5.67;;;4.57;;
1082;SDS011;530;51.448;7.238;2023-02-28T14:45:00;5.07;;;4.20;;
1082;SDS011;530;51.448;7.238;2023-02-28T14:47:28;4.83;;;4.33;;
1082;SDS011;530;51.448;7.238;2023-02-28T14:49:58;5.37;;;4.90;;
1082;SDS011;530;51.448;7.238;2023-02-28T14:52:29;5.10;;;4.70;;
1082;SDS011;530;51.448;7.238;2023-02-28T14:54:58;5.10;;;4.13;;
1082;SDS011;530;51.448;7.238;2023-02-28T14:57:26;4.50;;;4.10;;
1082;SDS011;530;51.448;7.238;2023-02-28T15:00:01;4.90;;;4.40;;
1082;SDS011;530;51.448;7.238;2023-02-28T15:02:40;5.13;;;4.63;;
1082;SDS011;530;51.448;7.238;2023-02-28T15:07:35;4.87;;;4.40;;
1082;SDS011;530;51.448;7.238;2023-02-28T15:12:34;6.07;;;4.50;;
1082;SDS011;530;51.448;7.238;2023-02-28T15:15:00;4.90;;;4.50;;
1082;SDS011;530;51.448;7.238;2023-02-28T15:17:26;4.90;;;4.50;;
1082;SDS011;530;51.448;7.238;2023-02-28T15:19:53;5.47;;;4.97;;
1082;SDS011;530;51.448;7.238;2023-02-28T15:22:21;4.73;;;4.33;;
1082;SDS011;530;51.448;7.238;2023-02-28T15:24:54;4.73;;;4.30;;
1082;SDS011;530;51.448;7.238;2023-02-28T15:27:22;4.63;;;4.33;;
1082;SDS011;530;51.448;7.238;2023-02-28T15:29:58;4.90;;;4.40;;
1082;SDS011;530;51.448;7.238;2023-02-28T15:32:36;4.37;;;3.97;;
1082;SDS011;530;51.448;7.238;2023-02-28T15:37:57;4.67;;;4.27;;
1082;SDS011;530;51.448;7.238;2023-02-28T15:40:49;4.33;;;3.93;;
1082;SDS011;530;51.448;7.238;2023-02-28T15:43:40;4.47;;;4.07;;
1082;SDS011;530;51.448;7.238;2023-02-28T15:46:09;5.10;;;4.60;;
1082;SDS011;530;51.448;7.238;2023-02-28T15:48:44;4.00;;;3.70;;
1082;SDS011;530;51.448;7.238;2023-02-28T15:51:20;4.23;;;3.83;;
1082;SDS011;530;51.448;7.238;2023-02-28T15:54:04;6.90;;;4.63;;
1082;SDS011;530;51.448;7.238;2023-02-28T15:56:33;4.63;;;4.20;;
1082;SDS011;530;51.448;7.238;2023-02-28T15:59:05;4.67;;;4.27;;
1082;SDS011;530;51.448;7.238;2023-02-28T16:01:34;4.57;;;4.00;;
1082;SDS011;530;51.448;7.238;2023-02-28T16:04:25;4.93;;;4.10;;
1082;SDS011;530;51.448;7.238;2023-02-28T16:09:25;5.30;;;3.93;;
1082;SDS011;530;51.448;7.238;2023-02-28T16:11:53;4.70;;;4.30;;
1082;SDS011;530;51.448;7.238;2023-02-28T16:14:22;4.50;;;4.10;;
1082;SDS011;530;51.448;7.238;2023-02-28T16:16:50;5.47;;;4.33;;
1082;SDS011;530;51.448;7.238;2023-02-28T16:19:20;5.60;;;4.00;;
1082;SDS011;530;51.448;7.238;2023-02-28T16:21:47;5.90;;;4.77;;
1082;SDS011;530;51.448;7.238;2023-02-28T16:24:13;5.13;;;4.30;;
1082;SDS011;530;51.448;7.238;2023-02-28T16:26:44;10.63;;;5.50;;
1082;SDS011;530;51.448;7.238;2023-02-28T16:29:19;4.60;;;4.20;;
1082;SDS011;530;51.448;7.238;2023-02-28T16:31:59;6.80;;;4.90;;
1082;SDS011;530;51.448;7.238;2023-02-28T16:34:25;5.27;;;4.77;;
1082;SDS011;530;51.448;7.238;2023-02-28T16:36:51;5.07;;;4.57;;
1082;SDS011;530;51.448;7.238;2023-02-28T16:39:17;5.50;;;4.50;;
1082;SDS011;530;51.448;7.238;2023-02-28T16:41:45;4.83;;;4.43;;
1082;SDS011;530;51.448;7.238;2023-02-28T16:44:17;5.17;;;4.17;;
1082;SDS011;530;51.448;7.238;2023-02-28T16:46:46;4.30;;;3.63;;
1082;SDS011;530;51.448;7.238;2023-02-28T16:49:12;4.30;;;3.90;;
1082;SDS011;530;51.448;7.238;2023-02-28T16:51:38;4.57;;;4.17;;
1082;SDS011;530;51.448;7.238;2023-02-28T16:54:04;3.60;;;3.30;;
1082;SDS011;530;51.448;7.238;2023-02-28T16:56:29;4.53;;;4.10;;
1082;SDS011;530;51.448;7.238;2023-02-28T16:58:57;4.30;;;3.90;;
1082;SDS011;530;51.448;7.238;2023-02-28T17:01:26;4.17;;;3.83;;
1082;SDS011;530;51.448;7.238;2023-02-28T17:03:52;3.83;;;3.53;;
1082;SDS011;530;51.448;7.238;2023-02-28T17:06:27;6.47;;;4.17;;
1082;SDS011;530;51.448;7.238;2023-02-28T17:08:54;5.07;;;3.80;;
1082;SDS011;530;51.448;7.238;2023-02-28T17:11:21;4.50;;;3.43;;
1082;SDS011;530;51.448;7.238;2023-02-28T17:13:47;6.17;;;4.03;;
1082;SDS011;530;51.448;7.238;2023-02-28T17:16:16;4.10;;;3.63;;
1082;SDS011;530;51.448;7.238;2023-02-28T17:18:49;4.67;;;4.20;;
1082;SDS011;530;51.448;7.238;2023-02-28T17:21:16;6.20;;;3.50;;
1082;SDS011;530;51.448;7.238;2023-02-28T17:23:42;5.20;;;4.10;;
1082;SDS011;530;51.448;7.238;2023-02-28T17:26:11;6.07;;;4.07;;
1082;SDS011;530;51.448;7.238;2023-02-28T17:28:38;3.93;;;3.63;;
1082;SDS011;530;51.448;7.238;2023-02-28T17:31:04;4.33;;;3.90;;
1082;SDS011;530;51.448;7.238;2023-02-28T17:33:29;4.37;;;3.33;;
1082;SDS011;530;51.448;7.238;2023-02-28T17:35:55;5.30;;;3.80;;
1082;SDS011;530;51.448;7.238;2023-02-28T17:38:21;7.43;;;4.30;;
1082;SDS011;530;51.448;7.238;2023-02-28T17:40:48;5.40;;;4.50;;
1082;SDS011;530;51.448;7.238;2023-02-28T17:43:14;5.30;;;4.50;;
1082;SDS011;530;51.448;7.238;2023-02-28T17:45:40;4.37;;;3.97;;
1082;SDS011;530;51.448;7.238;2023-02-28T17:48:06;5.57;;;3.97;;
1082;SDS011;530;51.448;7.238;2023-02-28T17:50:34;5.37;;;4.10;;
1082;SDS011;530;51.448;7.238;2023-02-28T17:53:00;4.07;;;3.67;;
1082;SDS011;530;51.448;7.238;2023-02-28T17:55:26;5.27;;;4.77;;
1082;SDS011;530;51.448;7.238;2023-02-28T17:57:51;4.93;;;4.27;;
1082;SDS011;530;51.448;7.238;2023-02-28T18:00:17;5.10;;;4.60;;
1082;SDS011;530;51.448;7.238;2023-02-28T18:02:43;6.13;;;4.33;;
1082;SDS011;530;51.448;7.238;2023-02-28T18:05:09;5.77;;;4.57;;
1082;SDS011;530;51.448;7.238;2023-02-28T18:07:36;4.60;;;4.13;;
1082;SDS011;530;51.448;7.238;2023-02-28T18:10:03;5.57;;;4.80;;
1082;SDS011;530;51.448;7.238;2023-02-28T18:12:30;5.23;;;4.73;;
1082;SDS011;530;51.448;7.238;2023-02-28T18:14:56;5.53;;;4.90;;
1082;SDS011;530;51.448;7.238;2023-02-28T18:17:22;5.73;;;4.87;;
1082;SDS011;530;51.448;7.238;2023-02-28T18:19:47;5.10;;;4.50;;
1082;SDS011;530;51.448;7.238;2023-02-28T18:22:13;5.90;;;4.80;;